sensor_id;sensor_type;location;lat;lon;timestamp;temperature;humidity
23609;DHT22;11982;50.810;4.442;2022-12-07T00:01:10;5.10;99.90
23609;DHT22;11982;50.810;4.442;2022-12-07T00:03:37;5.00;99.90
23609;DHT22;11982;50.810;4.442;2022-12-07T00:06:04;4.90;99.90
23609;DHT22;11982;50.810;4.442;2022-12-07T00:08:32;4.90;99.90
23609;DHT22;11982;50.810;4.442;2022-12-07T00:11:11;4.90;99.90
23609;DHT22;11982;50.810;4.442;2022-12-07T00:13:38;4.90;99.90
23609;DHT22;11982;50.810;4.442;2022-12-07T00:16:07;4.80;99.90
23609;DHT22;11982;50.810;4.442;2022-12-07T00:18:33;4.70;99.90
23609;DHT22;11982;50.810;4.442;2022-12-07T00:21:08;4.70;99.90
23609;DHT22;11982;50.810;4.442;2022-12-07T00:23:34;4.70;99.90
23609;DHT22;11982;50.810;4.442;2022-12-07T00:26:07;4.70;99.90
23609;DHT22;11982;50.810;4.442;2022-12-07T00:28:37;4.60;99.90
23609;DHT22;11982;50.810;4.442;2022-12-07T00:31:11;4.50;99.90
23609;DHT22;11982;50.810;4.442;2022-12-07T00:33:37;4.50;99.90
23609;DHT22;11982;50.810;4.442;2022-12-07T00:36:06;4.40;99.90
23609;DHT22;11982;50.810;4.442;2022-12-07T00:38:34;4.40;99.90
23609;DHT22;11982;50.810;4.442;2022-12-07T00:41:27;4.40;99.90
23609;DHT22;11982;50.810;4.442;2022-12-07T00:43:51;4.40;99.90
23609;DHT22;11982;50.810;4.442;2022-12-07T00:46:18;4.40;99.90
23609;DHT22;11982;50.810;4.442;2022-12-07T00:48:44;4.40;99.90
23609;DHT22;11982;50.810;4.442;2022-12-07T00:51:11;4.40;99.90
23609;DHT22;11982;50.810;4.442;2022-12-07T00:53:38;4.40;99.90
23609;DHT22;11982;50.810;4.442;2022-12-07T00:56:07;4.40;99.90
23609;DHT22;11982;50.810;4.442;2022-12-07T00:58:33;4.30;99.90
23609;DHT22;11982;50.810;4.442;2022-12-07T01:01:01;4.30;99.90
23609;DHT22;11982;50.810;4.442;2022-12-07T01:03:27;4.20;99.90
23609;DHT22;11982;50.810;4.442;2022-12-07T01:05:54;4.20;99.90
23609;DHT22;11982;50.810;4.442;2022-12-07T01:08:21;4.30;99.90
23609;DHT22;11982;50.810;4.442;2022-12-07T01:10:47;4.30;99.90
23609;DHT22;11982;50.810;4.442;2022-12-07T01:13:13;4.20;99.90
23609;DHT22;11982;50.810;4.442;2022-12-07T01:15:40;4.20;99.90
23609;DHT22;11982;50.810;4.442;2022-12-07T01:18:06;4.30;99.90
23609;DHT22;11982;50.810;4.442;2022-12-07T01:20:32;4.40;99.90
23609;DHT22;11982;50.810;4.442;2022-12-07T01:22:57;4.40;99.90
23609;DHT22;11982;50.810;4.442;2022-12-07T01:25:23;4.50;99.90
23609;DHT22;11982;50.810;4.442;2022-12-07T01:27:48;4.50;99.90
23609;DHT22;11982;50.810;4.442;2022-12-07T01:30:14;4.60;99.90
23609;DHT22;11982;50.810;4.442;2022-12-07T01:32:40;4.60;99.90
23609;DHT22;11982;50.810;4.442;2022-12-07T01:35:06;4.60;99.90
23609;DHT22;11982;50.810;4.442;2022-12-07T01:37:36;4.50;99.90
23609;DHT22;11982;50.810;4.442;2022-12-07T01:40:04;4.50;99.90
23609;DHT22;11982;50.810;4.442;2022-12-07T01:42:29;4.50;99.90
23609;DHT22;11982;50.810;4.442;2022-12-07T01:47:45;4.50;99.90
23609;DHT22;11982;50.810;4.442;2022-12-07T01:50:12;4.50;99.90
23609;DHT22;11982;50.810;4.442;2022-12-07T01:52:38;4.60;99.90
23609;DHT22;11982;50.810;4.442;2022-12-07T01:55:17;4.50;99.90
23609;DHT22;11982;50.810;4.442;2022-12-07T01:57:47;4.40;99.90
23609;DHT22;11982;50.810;4.442;2022-12-07T02:00:14;4.40;99.90
23609;DHT22;11982;50.810;4.442;2022-12-07T02:05:14;4.30;99.90
23609;DHT22;11982;50.810;4.442;2022-12-07T02:07:40;4.30;99.90
23609;DHT22;11982;50.810;4.442;2022-12-07T02:10:18;4.50;99.90
23609;DHT22;11982;50.810;4.442;2022-12-07T02:12:47;4.50;99.90
23609;DHT22;11982;50.810;4.442;2022-12-07T02:15:14;4.50;99.90
23609;DHT22;11982;50.810;4.442;2022-12-07T02:20:27;4.50;99.90
23609;DHT22;11982;50.810;4.442;2022-12-07T02:25:58;4.50;99.90
23609;DHT22;11982;50.810;4.442;2022-12-07T02:28:36;4.50;99.90
23609;DHT22;11982;50.810;4.442;2022-12-07T02:31:11;4.50;99.90
23609;DHT22;11982;50.810;4.442;2022-12-07T02:33:46;4.50;99.90
23609;DHT22;11982;50.810;4.442;2022-12-07T02:36:39;4.50;99.90
23609;DHT22;11982;50.810;4.442;2022-12-07T02:41:59;4.60;99.90
23609;DHT22;11982;50.810;4.442;2022-12-07T02:44:28;4.60;99.90
23609;DHT22;11982;50.810;4.442;2022-12-07T02:47:05;4.70;99.90
23609;DHT22;11982;50.810;4.442;2022-12-07T02:49:32;4.90;99.90
23609;DHT22;11982;50.810;4.442;2022-12-07T02:51:58;4.80;99.90
23609;DHT22;11982;50.810;4.442;2022-12-07T02:54:24;4.70;99.90
23609;DHT22;11982;50.810;4.442;2022-12-07T02:57:14;4.70;99.90
23609;DHT22;11982;50.810;4.442;2022-12-07T03:08:11;4.40;99.90
23609;DHT22;11982;50.810;4.442;2022-12-07T03:11:06;4.30;99.90
23609;DHT22;11982;50.810;4.442;2022-12-07T03:14:40;4.20;99.90
23609;DHT22;11982;50.810;4.442;2022-12-07T03:16:40;4.20;99.90
23609;DHT22;11982;50.810;4.442;2022-12-07T03:19:15;4.10;99.90
23609;DHT22;11982;50.810;4.442;2022-12-07T03:22:00;4.10;99.90
23609;DHT22;11982;50.810;4.442;2022-12-07T03:24:31;4.00;99.90
23609;DHT22;11982;50.810;4.442;2022-12-07T03:27:06;4.00;99.90
23609;DHT22;11982;50.810;4.442;2022-12-07T03:29:47;3.90;99.90
23609;DHT22;11982;50.810;4.442;2022-12-07T03:32:32;3.90;99.90
23609;DHT22;11982;50.810;4.442;2022-12-07T03:35:21;3.90;99.90
23609;DHT22;11982;50.810;4.442;2022-12-07T03:37:51;4.00;99.90
23609;DHT22;11982;50.810;4.442;2022-12-07T03:40:25;4.10;99.90
23609;DHT22;11982;50.810;4.442;2022-12-07T03:42:52;4.20;99.90
23609;DHT22;11982;50.810;4.442;2022-12-07T03:45:23;4.20;99.90
23609;DHT22;11982;50.810;4.442;2022-12-07T03:51:14;4.10;99.90
23609;DHT22;11982;50.810;4.442;2022-12-07T03:53:57;4.00;99.90
23609;DHT22;11982;50.810;4.442;2022-12-07T03:56:25;4.00;99.90
23609;DHT22;11982;50.810;4.442;2022-12-07T03:58:52;4.10;99.90
23609;DHT22;11982;50.810;4.442;2022-12-07T04:01:18;4.10;99.90
23609;DHT22;11982;50.810;4.442;2022-12-07T04:03:44;4.20;99.90
23609;DHT22;11982;50.810;4.442;2022-12-07T04:06:10;4.30;99.90
23609;DHT22;11982;50.810;4.442;2022-12-07T04:08:36;4.10;99.90
23609;DHT22;11982;50.810;4.442;2022-12-07T04:11:02;4.00;99.90
23609;DHT22;11982;50.810;4.442;2022-12-07T04:13:28;4.00;99.90
23609;DHT22;11982;50.810;4.442;2022-12-07T04:15:53;4.00;99.90
23609;DHT22;11982;50.810;4.442;2022-12-07T04:18:19;4.00;99.90
23609;DHT22;11982;50.810;4.442;2022-12-07T04:20:45;3.90;99.90
23609;DHT22;11982;50.810;4.442;2022-12-07T04:23:11;3.80;99.90
23609;DHT22;11982;50.810;4.442;2022-12-07T04:25:37;3.80;99.90
23609;DHT22;11982;50.810;4.442;2022-12-07T04:28:02;3.70;99.90
23609;DHT22;11982;50.810;4.442;2022-12-07T04:30:28;3.60;99.90
23609;DHT22;11982;50.810;4.442;2022-12-07T04:32:54;3.50;99.90
23609;DHT22;11982;50.810;4.442;2022-12-07T04:35:19;3.50;99.90
23609;DHT22;11982;50.810;4.442;2022-12-07T04:37:45;3.50;99.90
23609;DHT22;11982;50.810;4.442;2022-12-07T04:40:11;3.70;99.90
23609;DHT22;11982;50.810;4.442;2022-12-07T04:42:39;3.90;99.90
23609;DHT22;11982;50.810;4.442;2022-12-07T04:45:05;3.90;99.90
23609;DHT22;11982;50.810;4.442;2022-12-07T04:47:31;4.00;99.90
23609;DHT22;11982;50.810;4.442;2022-12-07T04:49:57;3.90;99.90
23609;DHT22;11982;50.810;4.442;2022-12-07T04:52:22;3.90;99.90
23609;DHT22;11982;50.810;4.442;2022-12-07T04:54:48;4.00;99.90
23609;DHT22;11982;50.810;4.442;2022-12-07T04:57:14;4.00;99.90
23609;DHT22;11982;50.810;4.442;2022-12-07T04:59:39;4.20;99.90
23609;DHT22;11982;50.810;4.442;2022-12-07T05:02:05;4.30;99.90
23609;DHT22;11982;50.810;4.442;2022-12-07T05:04:31;4.10;99.90
23609;DHT22;11982;50.810;4.442;2022-12-07T05:06:56;4.20;99.90
23609;DHT22;11982;50.810;4.442;2022-12-07T05:09:22;4.10;99.90
23609;DHT22;11982;50.810;4.442;2022-12-07T05:11:48;3.90;99.90
23609;DHT22;11982;50.810;4.442;2022-12-07T05:14:16;3.90;99.90
23609;DHT22;11982;50.810;4.442;2022-12-07T05:16:43;4.00;99.90
23609;DHT22;11982;50.810;4.442;2022-12-07T05:19:10;4.10;99.90
23609;DHT22;11982;50.810;4.442;2022-12-07T05:21:36;4.10;99.90
23609;DHT22;11982;50.810;4.442;2022-12-07T05:24:03;4.20;99.90
23609;DHT22;11982;50.810;4.442;2022-12-07T05:26:29;4.30;99.90
23609;DHT22;11982;50.810;4.442;2022-12-07T05:28:56;4.30;99.90
23609;DHT22;11982;50.810;4.442;2022-12-07T05:31:23;4.40;99.90
23609;DHT22;11982;50.810;4.442;2022-12-07T05:33:49;4.10;99.90
23609;DHT22;11982;50.810;4.442;2022-12-07T05:36:15;4.20;99.90
23609;DHT22;11982;50.810;4.442;2022-12-07T05:38:40;4.20;99.90
23609;DHT22;11982;50.810;4.442;2022-12-07T05:41:07;4.00;99.90
23609;DHT22;11982;50.810;4.442;2022-12-07T05:43:53;4.00;99.90
23609;DHT22;11982;50.810;4.442;2022-12-07T05:46:19;4.00;99.90
23609;DHT22;11982;50.810;4.442;2022-12-07T05:48:44;3.90;99.90
23609;DHT22;11982;50.810;4.442;2022-12-07T05:51:10;3.90;99.90
23609;DHT22;11982;50.810;4.442;2022-12-07T05:53:36;4.00;99.90
23609;DHT22;11982;50.810;4.442;2022-12-07T05:56:01;4.00;99.90
23609;DHT22;11982;50.810;4.442;2022-12-07T05:58:27;4.00;99.90
23609;DHT22;11982;50.810;4.442;2022-12-07T06:01:22;3.90;99.90
23609;DHT22;11982;50.810;4.442;2022-12-07T06:03:47;3.90;99.90
23609;DHT22;11982;50.810;4.442;2022-12-07T06:06:13;3.90;99.90
23609;DHT22;11982;50.810;4.442;2022-12-07T06:08:39;3.90;99.90
23609;DHT22;11982;50.810;4.442;2022-12-07T06:11:04;3.90;99.90
23609;DHT22;11982;50.810;4.442;2022-12-07T06:13:48;3.90;99.90
23609;DHT22;11982;50.810;4.442;2022-12-07T06:16:14;3.90;99.90
23609;DHT22;11982;50.810;4.442;2022-12-07T06:18:40;3.90;99.90
23609;DHT22;11982;50.810;4.442;2022-12-07T06:21:05;4.00;99.90
23609;DHT22;11982;50.810;4.442;2022-12-07T06:23:31;4.00;99.90
23609;DHT22;11982;50.810;4.442;2022-12-07T06:25:56;4.00;99.90
23609;DHT22;11982;50.810;4.442;2022-12-07T06:28:22;4.00;99.90
23609;DHT22;11982;50.810;4.442;2022-12-07T06:30:59;4.10;99.90
23609;DHT22;11982;50.810;4.442;2022-12-07T06:33:26;4.10;99.90
23609;DHT22;11982;50.810;4.442;2022-12-07T06:35:52;4.10;99.90
23609;DHT22;11982;50.810;4.442;2022-12-07T06:38:18;4.10;99.90
23609;DHT22;11982;50.810;4.442;2022-12-07T06:40:43;4.10;99.90
23609;DHT22;11982;50.810;4.442;2022-12-07T06:43:09;4.00;99.90
23609;DHT22;11982;50.810;4.442;2022-12-07T06:45:35;3.80;99.90
23609;DHT22;11982;50.810;4.442;2022-12-07T06:48:00;3.80;99.90
23609;DHT22;11982;50.810;4.442;2022-12-07T06:50:26;3.90;99.90
23609;DHT22;11982;50.810;4.442;2022-12-07T06:52:52;3.90;99.90
23609;DHT22;11982;50.810;4.442;2022-12-07T06:55:18;3.90;99.90
23609;DHT22;11982;50.810;4.442;2022-12-07T06:57:44;4.10;99.90
23609;DHT22;11982;50.810;4.442;2022-12-07T07:00:10;4.30;99.90
23609;DHT22;11982;50.810;4.442;2022-12-07T07:02:36;4.60;99.90
23609;DHT22;11982;50.810;4.442;2022-12-07T07:05:02;4.70;99.90
23609;DHT22;11982;50.810;4.442;2022-12-07T07:07:28;4.60;99.90
23609;DHT22;11982;50.810;4.442;2022-12-07T07:09:53;4.60;99.90
23609;DHT22;11982;50.810;4.442;2022-12-07T07:12:19;4.60;99.90
23609;DHT22;11982;50.810;4.442;2022-12-07T07:14:45;4.70;99.90
23609;DHT22;11982;50.810;4.442;2022-12-07T07:17:10;4.70;99.90
23609;DHT22;11982;50.810;4.442;2022-12-07T07:19:36;4.90;99.90
23609;DHT22;11982;50.810;4.442;2022-12-07T07:22:03;4.90;99.90
23609;DHT22;11982;50.810;4.442;2022-12-07T07:24:29;4.70;99.90
23609;DHT22;11982;50.810;4.442;2022-12-07T07:26:54;4.70;99.90
23609;DHT22;11982;50.810;4.442;2022-12-07T07:29:20;4.70;99.90
23609;DHT22;11982;50.810;4.442;2022-12-07T07:31:46;4.70;99.90
23609;DHT22;11982;50.810;4.442;2022-12-07T07:34:11;4.70;99.90
23609;DHT22;11982;50.810;4.442;2022-12-07T07:36:37;4.70;99.90
23609;DHT22;11982;50.810;4.442;2022-12-07T07:39:03;4.70;99.90
23609;DHT22;11982;50.810;4.442;2022-12-07T07:41:30;4.50;99.90
23609;DHT22;11982;50.810;4.442;2022-12-07T07:43:56;4.40;99.90
23609;DHT22;11982;50.810;4.442;2022-12-07T07:46:21;4.40;99.90
23609;DHT22;11982;50.810;4.442;2022-12-07T07:48:47;4.40;99.90
23609;DHT22;11982;50.810;4.442;2022-12-07T07:51:13;4.20;99.90
23609;DHT22;11982;50.810;4.442;2022-12-07T07:53:38;4.10;99.90
23609;DHT22;11982;50.810;4.442;2022-12-07T07:56:04;4.10;99.90
23609;DHT22;11982;50.810;4.442;2022-12-07T07:58:30;4.10;99.90
23609;DHT22;11982;50.810;4.442;2022-12-07T08:00:55;4.10;99.90
23609;DHT22;11982;50.810;4.442;2022-12-07T08:03:21;4.10;99.90
23609;DHT22;11982;50.810;4.442;2022-12-07T08:05:46;4.10;99.90
23609;DHT22;11982;50.810;4.442;2022-12-07T08:08:12;4.00;99.90
23609;DHT22;11982;50.810;4.442;2022-12-07T08:10:38;4.10;99.90
23609;DHT22;11982;50.810;4.442;2022-12-07T08:13:04;4.20;99.90
23609;DHT22;11982;50.810;4.442;2022-12-07T08:15:41;4.10;99.90
23609;DHT22;11982;50.810;4.442;2022-12-07T08:18:07;4.00;99.90
23609;DHT22;11982;50.810;4.442;2022-12-07T08:20:34;4.00;99.90
23609;DHT22;11982;50.810;4.442;2022-12-07T08:23:00;4.00;99.90
23609;DHT22;11982;50.810;4.442;2022-12-07T08:25:26;3.90;99.90
23609;DHT22;11982;50.810;4.442;2022-12-07T08:27:53;4.00;99.90
23609;DHT22;11982;50.810;4.442;2022-12-07T08:30:19;4.00;99.90
23609;DHT22;11982;50.810;4.442;2022-12-07T08:32:46;4.00;99.90
23609;DHT22;11982;50.810;4.442;2022-12-07T08:35:12;4.10;99.90
23609;DHT22;11982;50.810;4.442;2022-12-07T08:37:38;4.10;99.90
23609;DHT22;11982;50.810;4.442;2022-12-07T08:40:06;4.00;99.90
23609;DHT22;11982;50.810;4.442;2022-12-07T08:42:32;3.90;99.90
23609;DHT22;11982;50.810;4.442;2022-12-07T08:45:06;3.90;99.90
23609;DHT22;11982;50.810;4.442;2022-12-07T08:47:48;3.90;99.90
23609;DHT22;11982;50.810;4.442;2022-12-07T08:50:15;4.00;99.90
23609;DHT22;11982;50.810;4.442;2022-12-07T08:52:41;4.10;99.90
23609;DHT22;11982;50.810;4.442;2022-12-07T08:55:10;4.10;99.90
23609;DHT22;11982;50.810;4.442;2022-12-07T08:57:36;4.20;99.90
23609;DHT22;11982;50.810;4.442;2022-12-07T09:00:04;4.20;99.90
23609;DHT22;11982;50.810;4.442;2022-12-07T09:02:31;4.30;99.90
23609;DHT22;11982;50.810;4.442;2022-12-07T09:04:56;4.50;99.90
23609;DHT22;11982;50.810;4.442;2022-12-07T09:07:23;4.70;99.90
23609;DHT22;11982;50.810;4.442;2022-12-07T09:09:49;4.80;99.90
23609;DHT22;11982;50.810;4.442;2022-12-07T09:12:14;5.00;99.90
23609;DHT22;11982;50.810;4.442;2022-12-07T09:14:40;5.10;99.90
23609;DHT22;11982;50.810;4.442;2022-12-07T09:17:11;5.00;99.90
23609;DHT22;11982;50.810;4.442;2022-12-07T09:19:37;5.00;99.90
23609;DHT22;11982;50.810;4.442;2022-12-07T09:22:03;5.10;99.90
23609;DHT22;11982;50.810;4.442;2022-12-07T09:24:31;5.20;99.90
23609;DHT22;11982;50.810;4.442;2022-12-07T09:26:57;5.30;99.90
23609;DHT22;11982;50.810;4.442;2022-12-07T09:29:23;5.50;99.90
23609;DHT22;11982;50.810;4.442;2022-12-07T09:31:49;5.40;99.90
23609;DHT22;11982;50.810;4.442;2022-12-07T09:34:15;5.50;99.90
23609;DHT22;11982;50.810;4.442;2022-12-07T09:36:40;5.60;99.90
23609;DHT22;11982;50.810;4.442;2022-12-07T09:39:07;5.60;99.90
23609;DHT22;11982;50.810;4.442;2022-12-07T09:41:33;5.70;99.90
23609;DHT22;11982;50.810;4.442;2022-12-07T09:44:05;5.70;99.90
23609;DHT22;11982;50.810;4.442;2022-12-07T09:46:36;5.70;99.90
23609;DHT22;11982;50.810;4.442;2022-12-07T09:49:02;5.60;99.90
23609;DHT22;11982;50.810;4.442;2022-12-07T09:51:28;5.70;99.90
23609;DHT22;11982;50.810;4.442;2022-12-07T09:53:56;5.80;99.90
23609;DHT22;11982;50.810;4.442;2022-12-07T09:56:23;5.80;99.90
23609;DHT22;11982;50.810;4.442;2022-12-07T09:58:49;5.90;99.90
23609;DHT22;11982;50.810;4.442;2022-12-07T10:01:20;5.80;99.90
23609;DHT22;11982;50.810;4.442;2022-12-07T10:03:54;5.70;99.90
23609;DHT22;11982;50.810;4.442;2022-12-07T10:06:20;5.60;99.90
23609;DHT22;11982;50.810;4.442;2022-12-07T10:08:46;5.70;99.90
23609;DHT22;11982;50.810;4.442;2022-12-07T10:11:12;5.70;99.90
23609;DHT22;11982;50.810;4.442;2022-12-07T10:13:47;5.70;99.90
23609;DHT22;11982;50.810;4.442;2022-12-07T10:16:30;5.90;99.90
23609;DHT22;11982;50.810;4.442;2022-12-07T10:18:57;6.20;99.90
23609;DHT22;11982;50.810;4.442;2022-12-07T10:21:25;6.50;99.90
23609;DHT22;11982;50.810;4.442;2022-12-07T10:24:05;6.60;99.90
23609;DHT22;11982;50.810;4.442;2022-12-07T10:29:16;6.50;99.90
23609;DHT22;11982;50.810;4.442;2022-12-07T10:31:44;6.30;99.90
23609;DHT22;11982;50.810;4.442;2022-12-07T10:34:34;6.20;99.90
23609;DHT22;11982;50.810;4.442;2022-12-07T10:40:20;6.10;99.90
23609;DHT22;11982;50.810;4.442;2022-12-07T10:42:28;6.40;99.90
23609;DHT22;11982;50.810;4.442;2022-12-07T10:45:15;6.50;99.90
23609;DHT22;11982;50.810;4.442;2022-12-07T10:58:59;6.10;99.90
23609;DHT22;11982;50.810;4.442;2022-12-07T11:09:47;6.20;99.90
23609;DHT22;11982;50.810;4.442;2022-12-07T11:15:19;6.50;99.90
23609;DHT22;11982;50.810;4.442;2022-12-07T11:18:09;6.60;99.90
23609;DHT22;11982;50.810;4.442;2022-12-07T11:20:59;6.60;99.90
23609;DHT22;11982;50.810;4.442;2022-12-07T11:26:16;6.60;99.90
23609;DHT22;11982;50.810;4.442;2022-12-07T11:36:57;6.20;99.90
23609;DHT22;11982;50.810;4.442;2022-12-07T11:39:34;6.10;99.90
23609;DHT22;11982;50.810;4.442;2022-12-07T11:42:06;5.90;99.90
23609;DHT22;11982;50.810;4.442;2022-12-07T11:44:46;5.80;99.90
23609;DHT22;11982;50.810;4.442;2022-12-07T11:52:47;5.80;99.90
23609;DHT22;11982;50.810;4.442;2022-12-07T11:55:24;5.90;99.90
23609;DHT22;11982;50.810;4.442;2022-12-07T11:57:58;5.90;99.90
23609;DHT22;11982;50.810;4.442;2022-12-07T12:00:25;6.00;99.90
23609;DHT22;11982;50.810;4.442;2022-12-07T12:03:01;5.90;99.90
23609;DHT22;11982;50.810;4.442;2022-12-07T12:05:29;5.90;99.90
23609;DHT22;11982;50.810;4.442;2022-12-07T12:08:14;5.90;99.90
23609;DHT22;11982;50.810;4.442;2022-12-07T12:21:55;6.30;99.90
23609;DHT22;11982;50.810;4.442;2022-12-07T12:24:25;6.40;99.90
23609;DHT22;11982;50.810;4.442;2022-12-07T12:26:58;6.40;99.90
23609;DHT22;11982;50.810;4.442;2022-12-07T12:29:36;6.40;99.90
23609;DHT22;11982;50.810;4.442;2022-12-07T12:32:43;6.40;99.90
23609;DHT22;11982;50.810;4.442;2022-12-07T12:37:49;6.30;99.90
23609;DHT22;11982;50.810;4.442;2022-12-07T12:45:25;6.30;99.90
23609;DHT22;11982;50.810;4.442;2022-12-07T12:48:01;6.20;99.90
23609;DHT22;11982;50.810;4.442;2022-12-07T12:50:34;6.20;99.90
23609;DHT22;11982;50.810;4.442;2022-12-07T12:53:20;6.20;99.90
23609;DHT22;11982;50.810;4.442;2022-12-07T13:00:47;6.30;99.90
23609;DHT22;11982;50.810;4.442;2022-12-07T13:03:29;6.30;99.90
23609;DHT22;11982;50.810;4.442;2022-12-07T13:06:17;6.40;99.90
23609;DHT22;11982;50.810;4.442;2022-12-07T13:08:43;6.40;99.90
23609;DHT22;11982;50.810;4.442;2022-12-07T13:17:53;7.00;99.90
23609;DHT22;11982;50.810;4.442;2022-12-07T13:20:06;7.10;99.90
23609;DHT22;11982;50.810;4.442;2022-12-07T13:25:29;7.00;99.90
23609;DHT22;11982;50.810;4.442;2022-12-07T13:28:23;6.90;99.90
23609;DHT22;11982;50.810;4.442;2022-12-07T13:33:17;7.00;99.90
23609;DHT22;11982;50.810;4.442;2022-12-07T13:35:44;7.00;99.90
23609;DHT22;11982;50.810;4.442;2022-12-07T13:38:28;6.90;99.90
23609;DHT22;11982;50.810;4.442;2022-12-07T13:43:26;6.90;99.90
23609;DHT22;11982;50.810;4.442;2022-12-07T13:45:58;6.90;99.90
23609;DHT22;11982;50.810;4.442;2022-12-07T13:51:00;6.90;99.90
23609;DHT22;11982;50.810;4.442;2022-12-07T13:53:27;6.90;99.90
23609;DHT22;11982;50.810;4.442;2022-12-07T13:55:57;7.00;99.90
23609;DHT22;11982;50.810;4.442;2022-12-07T13:58:25;7.00;99.90
23609;DHT22;11982;50.810;4.442;2022-12-07T14:00:51;6.90;99.90
23609;DHT22;11982;50.810;4.442;2022-12-07T14:05:44;6.80;99.90
23609;DHT22;11982;50.810;4.442;2022-12-07T14:10:54;6.80;99.90
23609;DHT22;11982;50.810;4.442;2022-12-07T14:13:37;6.70;99.90
23609;DHT22;11982;50.810;4.442;2022-12-07T14:16:26;6.60;99.90
23609;DHT22;11982;50.810;4.442;2022-12-07T14:18:54;6.60;99.90
23609;DHT22;11982;50.810;4.442;2022-12-07T14:21:23;6.50;99.90
23609;DHT22;11982;50.810;4.442;2022-12-07T14:24:18;6.30;99.90
23609;DHT22;11982;50.810;4.442;2022-12-07T14:26:48;6.30;99.90
23609;DHT22;11982;50.810;4.442;2022-12-07T14:29:30;6.20;99.90
23609;DHT22;11982;50.810;4.442;2022-12-07T14:31:59;6.10;99.90
23609;DHT22;11982;50.810;4.442;2022-12-07T14:34:32;6.10;99.90
23609;DHT22;11982;50.810;4.442;2022-12-07T14:36:57;6.10;99.90
23609;DHT22;11982;50.810;4.442;2022-12-07T14:39:23;6.00;99.90
23609;DHT22;11982;50.810;4.442;2022-12-07T14:41:49;6.00;99.90
23609;DHT22;11982;50.810;4.442;2022-12-07T14:44:19;6.00;99.90
23609;DHT22;11982;50.810;4.442;2022-12-07T14:46:45;6.10;99.90
23609;DHT22;11982;50.810;4.442;2022-12-07T14:49:11;6.00;99.90
23609;DHT22;11982;50.810;4.442;2022-12-07T14:51:39;6.10;99.90
23609;DHT22;11982;50.810;4.442;2022-12-07T14:54:07;6.10;99.90
23609;DHT22;11982;50.810;4.442;2022-12-07T14:56:38;6.20;99.90
23609;DHT22;11982;50.810;4.442;2022-12-07T14:59:03;6.20;99.90
23609;DHT22;11982;50.810;4.442;2022-12-07T15:01:29;6.20;99.90
23609;DHT22;11982;50.810;4.442;2022-12-07T15:03:55;6.10;99.90
23609;DHT22;11982;50.810;4.442;2022-12-07T15:06:20;6.20;99.90
23609;DHT22;11982;50.810;4.442;2022-12-07T15:08:46;6.10;99.90
23609;DHT22;11982;50.810;4.442;2022-12-07T15:11:16;6.20;99.90
23609;DHT22;11982;50.810;4.442;2022-12-07T15:13:41;6.30;99.90
23609;DHT22;11982;50.810;4.442;2022-12-07T15:16:25;6.00;99.90
23609;DHT22;11982;50.810;4.442;2022-12-07T15:18:51;6.00;99.90
23609;DHT22;11982;50.810;4.442;2022-12-07T15:21:17;6.00;99.90
23609;DHT22;11982;50.810;4.442;2022-12-07T15:23:43;5.90;99.90
23609;DHT22;11982;50.810;4.442;2022-12-07T15:26:10;5.90;99.90
23609;DHT22;11982;50.810;4.442;2022-12-07T15:28:36;5.90;99.90
23609;DHT22;11982;50.810;4.442;2022-12-07T15:31:01;5.90;99.90
23609;DHT22;11982;50.810;4.442;2022-12-07T15:33:27;5.90;99.90
23609;DHT22;11982;50.810;4.442;2022-12-07T15:35:53;5.90;99.90
23609;DHT22;11982;50.810;4.442;2022-12-07T15:38:19;6.00;99.90
23609;DHT22;11982;50.810;4.442;2022-12-07T15:40:47;5.90;99.90
23609;DHT22;11982;50.810;4.442;2022-12-07T15:43:13;5.90;99.90
23609;DHT22;11982;50.810;4.442;2022-12-07T15:45:57;6.00;99.90
23609;DHT22;11982;50.810;4.442;2022-12-07T15:48:24;6.00;99.90
23609;DHT22;11982;50.810;4.442;2022-12-07T15:50:50;6.00;99.90
23609;DHT22;11982;50.810;4.442;2022-12-07T15:53:16;6.00;99.90
23609;DHT22;11982;50.810;4.442;2022-12-07T15:55:41;6.00;99.90
23609;DHT22;11982;50.810;4.442;2022-12-07T15:58:07;5.90;99.90
23609;DHT22;11982;50.810;4.442;2022-12-07T16:00:33;5.80;99.90
23609;DHT22;11982;50.810;4.442;2022-12-07T16:02:58;5.80;99.90
23609;DHT22;11982;50.810;4.442;2022-12-07T16:05:24;5.70;99.90
23609;DHT22;11982;50.810;4.442;2022-12-07T16:07:50;5.70;99.90
23609;DHT22;11982;50.810;4.442;2022-12-07T16:10:16;5.70;99.90
23609;DHT22;11982;50.810;4.442;2022-12-07T16:12:41;5.60;99.90
23609;DHT22;11982;50.810;4.442;2022-12-07T16:15:08;5.50;99.90
23609;DHT22;11982;50.810;4.442;2022-12-07T16:17:36;5.50;99.90
23609;DHT22;11982;50.810;4.442;2022-12-07T16:20:03;5.50;99.90
23609;DHT22;11982;50.810;4.442;2022-12-07T16:22:29;5.50;99.90
23609;DHT22;11982;50.810;4.442;2022-12-07T16:24:55;5.40;99.90
23609;DHT22;11982;50.810;4.442;2022-12-07T16:27:21;5.40;99.90
23609;DHT22;11982;50.810;4.442;2022-12-07T16:29:46;5.40;99.90
23609;DHT22;11982;50.810;4.442;2022-12-07T16:32:12;5.40;99.90
23609;DHT22;11982;50.810;4.442;2022-12-07T16:34:39;5.40;99.90
23609;DHT22;11982;50.810;4.442;2022-12-07T16:37:05;5.40;99.90
23609;DHT22;11982;50.810;4.442;2022-12-07T16:39:30;5.40;99.90
23609;DHT22;11982;50.810;4.442;2022-12-07T16:41:56;5.40;99.90
23609;DHT22;11982;50.810;4.442;2022-12-07T16:44:22;5.40;99.90
23609;DHT22;11982;50.810;4.442;2022-12-07T16:46:47;5.40;99.90
23609;DHT22;11982;50.810;4.442;2022-12-07T16:49:13;5.30;99.90
23609;DHT22;11982;50.810;4.442;2022-12-07T16:51:39;5.30;99.90
23609;DHT22;11982;50.810;4.442;2022-12-07T16:54:06;5.30;99.90
23609;DHT22;11982;50.810;4.442;2022-12-07T16:56:32;5.30;99.90
23609;DHT22;11982;50.810;4.442;2022-12-07T16:58:58;5.40;99.90
23609;DHT22;11982;50.810;4.442;2022-12-07T17:01:24;5.40;99.90
23609;DHT22;11982;50.810;4.442;2022-12-07T17:03:49;5.40;99.90
23609;DHT22;11982;50.810;4.442;2022-12-07T17:06:18;5.30;99.90
23609;DHT22;11982;50.810;4.442;2022-12-07T17:08:44;5.30;99.90
23609;DHT22;11982;50.810;4.442;2022-12-07T17:11:15;5.30;99.90
23609;DHT22;11982;50.810;4.442;2022-12-07T17:13:42;5.30;99.90
23609;DHT22;11982;50.810;4.442;2022-12-07T17:16:26;5.50;99.90
23609;DHT22;11982;50.810;4.442;2022-12-07T17:18:52;5.50;99.90
23609;DHT22;11982;50.810;4.442;2022-12-07T17:21:18;5.40;99.90
23609;DHT22;11982;50.810;4.442;2022-12-07T17:23:43;5.40;99.90
23609;DHT22;11982;50.810;4.442;2022-12-07T17:26:12;5.40;99.90
23609;DHT22;11982;50.810;4.442;2022-12-07T17:28:38;5.50;99.90
23609;DHT22;11982;50.810;4.442;2022-12-07T17:31:05;5.50;99.90
23609;DHT22;11982;50.810;4.442;2022-12-07T17:33:32;5.50;99.90
23609;DHT22;11982;50.810;4.442;2022-12-07T17:35:58;5.50;99.90
23609;DHT22;11982;50.810;4.442;2022-12-07T17:38:24;5.40;99.90
23609;DHT22;11982;50.810;4.442;2022-12-07T17:40:50;5.40;99.90
23609;DHT22;11982;50.810;4.442;2022-12-07T17:43:16;5.40;99.90
23609;DHT22;11982;50.810;4.442;2022-12-07T17:45:41;5.50;99.90
23609;DHT22;11982;50.810;4.442;2022-12-07T17:48:07;5.60;99.90
23609;DHT22;11982;50.810;4.442;2022-12-07T17:50:33;5.60;99.90
23609;DHT22;11982;50.810;4.442;2022-12-07T17:53:17;5.40;99.90